sensor_id;sensor_type;location;lat;lon;timestamp;pressure;altitude;pressure_sealevel;temperature;humidity
55044;BME280;54902;50.420;18.854;2023-04-09T00:00:00;102029.16;;;7.02;75.12
55044;BME280;54902;50.420;18.854;2023-04-09T00:00:30;102030.15;;;7.01;75.21
55044;BME280;54902;50.420;18.854;2023-04-09T00:01:07;102029.24;;;7.00;75.19
55044;BME280;54902;50.420;18.854;2023-04-09T00:01:38;102027.43;;;7.01;75.20
55044;BME280;54902;50.420;18.854;2023-04-09T00:02:09;102028.29;;;7.01;75.19
55044;BME280;54902;50.420;18.854;2023-04-09T00:02:40;102026.53;;;7.00;75.19
55044;BME280;54902;50.420;18.854;2023-04-09T00:03:11;102026.45;;;7.02;75.19
55044;BME280;54902;50.420;18.854;2023-04-09T00:03:42;102013.34;;;6.93;75.18
55044;BME280;54902;50.420;18.854;2023-04-09T00:04:13;102023.73;;;7.02;75.19
55044;BME280;54902;50.420;18.854;2023-04-09T00:04:44;102022.00;;;7.01;75.17
55044;BME280;54902;50.420;18.854;2023-04-09T00:05:15;102021.02;;;7.02;75.19
55044;BME280;54902;50.420;18.854;2023-04-09T00:05:46;102023.73;;;7.02;75.18
55044;BME280;54902;50.420;18.854;2023-04-09T00:06:17;102021.02;;;7.02;75.18
55044;BME280;54902;50.420;18.854;2023-04-09T00:06:48;102028.21;;;7.03;75.17
55044;BME280;54902;50.420;18.854;2023-04-09T00:07:19;102025.50;;;7.03;75.17
55044;BME280;54902;50.420;18.854;2023-04-09T00:07:50;102020.97;;;7.03;75.19
55044;BME280;54902;50.420;18.854;2023-04-09T00:08:21;102024.55;;;7.04;75.18
55044;BME280;54902;50.420;18.854;2023-04-09T00:08:55;102020.97;;;7.03;75.17
55044;BME280;54902;50.420;18.854;2023-04-09T00:09:26;102020.06;;;7.03;75.16
55044;BME280;54902;50.420;18.854;2023-04-09T00:09:57;102026.33;;;7.05;75.16
55044;BME280;54902;50.420;18.854;2023-04-09T00:10:28;102014.63;;;7.03;75.15
55044;BME280;54902;50.420;18.854;2023-04-09T00:10:59;102026.33;;;7.05;75.14
55044;BME280;54902;50.420;18.854;2023-04-09T00:11:31;102022.70;;;7.04;75.13
55044;BME280;54902;50.420;18.854;2023-04-09T00:12:02;101997.91;;;6.93;75.15
55044;BME280;54902;50.420;18.854;2023-04-09T00:12:33;102018.18;;;7.05;75.14
55044;BME280;54902;50.420;18.854;2023-04-09T00:13:04;102021.84;;;7.04;75.13
55044;BME280;54902;50.420;18.854;2023-04-09T00:13:35;102015.53;;;7.03;75.13
55044;BME280;54902;50.420;18.854;2023-04-09T00:14:06;102017.27;;;7.04;75.13
55044;BME280;54902;50.420;18.854;2023-04-09T00:14:37;102019.11;;;7.04;75.13
55044;BME280;54902;50.420;18.854;2023-04-09T00:15:08;102020.97;;;7.03;75.12
55044;BME280;54902;50.420;18.854;2023-04-09T00:15:39;102009.20;;;7.03;75.12
55044;BME280;54902;50.420;18.854;2023-04-09T00:16:10;102017.34;;;7.03;75.10
55044;BME280;54902;50.420;18.854;2023-04-09T00:16:41;102014.63;;;7.03;75.10
55044;BME280;54902;50.420;18.854;2023-04-09T00:17:12;102021.84;;;7.04;75.12
55044;BME280;54902;50.420;18.854;2023-04-09T00:17:43;102023.67;;;7.03;75.14
55044;BME280;54902;50.420;18.854;2023-04-09T00:18:14;102016.40;;;7.04;75.14
55044;BME280;54902;50.420;18.854;2023-04-09T00:18:46;102027.27;;;7.04;75.17
55044;BME280;54902;50.420;18.854;2023-04-09T00:19:17;102017.51;;;7.00;75.20
55044;BME280;54902;50.420;18.854;2023-04-09T00:19:48;102022.78;;;7.03;75.19
55044;BME280;54902;50.420;18.854;2023-04-09T00:20:19;102025.50;;;7.03;75.17
55044;BME280;54902;50.420;18.854;2023-04-09T00:20:50;102022.78;;;7.03;75.19
55044;BME280;54902;50.420;18.854;2023-04-09T00:21:21;102022.78;;;7.03;75.20
55044;BME280;54902;50.420;18.854;2023-04-09T00:21:52;102019.11;;;7.04;75.20
55044;BME280;54902;50.420;18.854;2023-04-09T00:22:23;102019.20;;;7.02;75.19
55044;BME280;54902;50.420;18.854;2023-04-09T00:22:54;102025.50;;;7.03;75.18
55044;BME280;54902;50.420;18.854;2023-04-09T00:23:25;102017.43;;;7.01;75.19
55044;BME280;54902;50.420;18.854;2023-04-09T00:23:56;102022.87;;;7.01;75.18
55044;BME280;54902;50.420;18.854;2023-04-09T00:24:27;102013.84;;;7.01;75.20
55044;BME280;54902;50.420;18.854;2023-04-09T00:24:58;102020.14;;;7.01;75.20
55044;BME280;54902;50.420;18.854;2023-04-09T00:25:29;102025.58;;;7.01;75.22
55044;BME280;54902;50.420;18.854;2023-04-09T00:26:01;102040.02;;;7.02;75.21
55044;BME280;54902;50.420;18.854;2023-04-09T00:26:32;102026.53;;;7.00;75.23
55044;BME280;54902;50.420;18.854;2023-04-09T00:27:03;102024.70;;;7.01;75.20
55044;BME280;54902;50.420;18.854;2023-04-09T00:27:34;102025.66;;;7.00;75.20
55044;BME280;54902;50.420;18.854;2023-04-09T00:28:05;102031.09;;;7.00;75.21
55044;BME280;54902;50.420;18.854;2023-04-09T00:28:37;102028.37;;;7.00;75.22
55044;BME280;54902;50.420;18.854;2023-04-09T00:29:07;102034.76;;;6.99;75.23
55044;BME280;54902;50.420;18.854;2023-04-09T00:29:38;102024.79;;;6.99;75.24
55044;BME280;54902;50.420;18.854;2023-04-09T00:30:10;102026.61;;;6.99;75.23
55044;BME280;54902;50.420;18.854;2023-04-09T00:30:41;102023.02;;;6.98;75.22
55044;BME280;54902;50.420;18.854;2023-04-09T00:31:12;102021.26;;;6.97;75.20
55044;BME280;54902;50.420;18.854;2023-04-09T00:31:43;102032.98;;;6.98;75.21
55044;BME280;54902;50.420;18.854;2023-04-09T00:32:14;102018.70;;;6.94;75.04
55044;BME280;54902;50.420;18.854;2023-04-09T00:32:45;102027.55;;;6.98;75.18
55044;BME280;54902;50.420;18.854;2023-04-09T00:33:16;102023.10;;;6.97;75.19
55044;BME280;54902;50.420;18.854;2023-04-09T00:33:47;102022.12;;;6.98;75.20
55044;BME280;54902;50.420;18.854;2023-04-09T00:34:17;102032.12;;;6.97;75.22
55044;BME280;54902;50.420;18.854;2023-04-09T00:34:48;102020.38;;;6.97;75.21
55044;BME280;54902;50.420;18.854;2023-04-09T00:35:20;102024.05;;;6.96;75.23
55044;BME280;54902;50.420;18.854;2023-04-09T00:35:51;102014.96;;;6.97;75.24
55044;BME280;54902;50.420;18.854;2023-04-09T00:36:22;102031.25;;;6.97;75.24
55044;BME280;54902;50.420;18.854;2023-04-09T00:36:53;102015.90;;;6.96;75.23
55044;BME280;54902;50.420;18.854;2023-04-09T00:37:23;102017.72;;;6.95;75.22
55044;BME280;54902;50.420;18.854;2023-04-09T00:37:54;102020.44;;;6.95;75.20
55044;BME280;54902;50.420;18.854;2023-04-09T00:38:25;102017.72;;;6.95;75.20
55044;BME280;54902;50.420;18.854;2023-04-09T00:38:56;102014.13;;;6.95;75.18
55044;BME280;54902;50.420;18.854;2023-04-09T00:39:28;102014.13;;;6.95;75.19
55044;BME280;54902;50.420;18.854;2023-04-09T00:39:59;102016.85;;;6.95;75.18
55044;BME280;54902;50.420;18.854;2023-04-09T00:40:30;102016.85;;;6.95;75.19
55044;BME280;54902;50.420;18.854;2023-04-09T00:41:01;102016.85;;;6.95;75.18
55044;BME280;54902;50.420;18.854;2023-04-09T00:41:32;102011.41;;;6.95;75.19
55044;BME280;54902;50.420;18.854;2023-04-09T00:42:03;102015.98;;;6.94;75.20
55044;BME280;54902;50.420;18.854;2023-04-09T00:42:35;102009.65;;;6.94;75.20
55044;BME280;54902;50.420;18.854;2023-04-09T00:43:07;102015.08;;;6.94;75.21
55044;BME280;54902;50.420;18.854;2023-04-09T00:43:38;102012.37;;;6.94;75.23
55044;BME280;54902;50.420;18.854;2023-04-09T00:44:09;102014.22;;;6.93;75.24
55044;BME280;54902;50.420;18.854;2023-04-09T00:44:39;102014.22;;;6.93;75.23
55044;BME280;54902;50.420;18.854;2023-04-09T00:45:10;102012.37;;;6.94;75.24
55044;BME280;54902;50.420;18.854;2023-04-09T00:45:41;102017.80;;;6.94;75.24
55044;BME280;54902;50.420;18.854;2023-04-09T00:46:13;102015.08;;;6.94;75.22
55044;BME280;54902;50.420;18.854;2023-04-09T00:46:45;102009.65;;;6.94;75.24
55044;BME280;54902;50.420;18.854;2023-04-09T00:47:16;102008.78;;;6.93;75.24
55044;BME280;54902;50.420;18.854;2023-04-09T00:47:48;102017.80;;;6.94;75.25
55044;BME280;54902;50.420;18.854;2023-04-09T00:48:19;102015.16;;;6.93;75.25
55044;BME280;54902;50.420;18.854;2023-04-09T00:48:50;102010.63;;;6.93;75.26
55044;BME280;54902;50.420;18.854;2023-04-09T00:49:21;102017.88;;;6.93;75.27
55044;BME280;54902;50.420;18.854;2023-04-09T00:49:56;102010.67;;;6.92;75.26
55044;BME280;54902;50.420;18.854;2023-04-09T00:50:27;102016.06;;;6.93;75.27
55044;BME280;54902;50.420;18.854;2023-04-09T00:50:58;102008.95;;;6.91;75.28
55044;BME280;54902;50.420;18.854;2023-04-09T00:51:29;102017.02;;;6.92;75.26
55044;BME280;54902;50.420;18.854;2023-04-09T00:52:01;102014.30;;;6.92;75.27
55044;BME280;54902;50.420;18.854;2023-04-09T00:52:32;102015.24;;;6.91;75.28
55044;BME280;54902;50.420;18.854;2023-04-09T00:53:04;102021.55;;;6.92;75.27
55044;BME280;54902;50.420;18.854;2023-04-09T00:53:35;102026.11;;;6.91;75.27
55044;BME280;54902;50.420;18.854;2023-04-09T00:54:06;102024.34;;;6.90;75.28
55044;BME280;54902;50.420;18.854;2023-04-09T00:54:37;102021.62;;;6.90;75.30
55044;BME280;54902;50.420;18.854;2023-04-09T00:55:09;102018.91;;;6.90;75.29
55044;BME280;54902;50.420;18.854;2023-04-09T00:55:40;102023.47;;;6.90;75.27
55044;BME280;54902;50.420;18.854;2023-04-09T00:56:12;102020.76;;;6.90;75.27
55044;BME280;54902;50.420;18.854;2023-04-09T00:56:45;102022.60;;;6.89;75.27
55044;BME280;54902;50.420;18.854;2023-04-09T00:57:18;102019.88;;;6.89;75.30
55044;BME280;54902;50.420;18.854;2023-04-09T00:57:49;102020.84;;;6.88;75.28
55044;BME280;54902;50.420;18.854;2023-04-09T00:58:20;102023.55;;;6.88;75.28
55044;BME280;54902;50.420;18.854;2023-04-09T00:58:51;102029.93;;;6.87;75.30
55044;BME280;54902;50.420;18.854;2023-04-09T00:59:24;102025.38;;;6.88;75.29
55044;BME280;54902;50.420;18.854;2023-04-09T00:59:55;102025.45;;;6.86;75.29
55044;BME280;54902;50.420;18.854;2023-04-09T01:00:27;102027.21;;;6.87;75.30
55044;BME280;54902;50.420;18.854;2023-04-09T01:00:57;102025.45;;;6.86;75.28
55044;BME280;54902;50.420;18.854;2023-04-09T01:01:28;102031.82;;;6.85;75.28
55044;BME280;54902;50.420;18.854;2023-04-09T01:02:00;102024.66;;;6.84;75.29
55044;BME280;54902;50.420;18.854;2023-04-09T01:02:30;102031.91;;;6.84;75.27
55044;BME280;54902;50.420;18.854;2023-04-09T01:03:02;102032.80;;;6.84;75.28
55044;BME280;54902;50.420;18.854;2023-04-09T01:03:35;102015.27;;;6.73;75.28
55044;BME280;54902;50.420;18.854;2023-04-09T01:04:06;102032.89;;;6.83;75.30
55044;BME280;54902;50.420;18.854;2023-04-09T01:04:39;102031.99;;;6.82;75.30
55044;BME280;54902;50.420;18.854;2023-04-09T01:05:12;102030.21;;;6.81;75.31
55044;BME280;54902;50.420;18.854;2023-04-09T01:05:53;102030.21;;;6.81;75.32
55044;BME280;54902;50.420;18.854;2023-04-09T01:08:53;102035.80;;;6.78;75.32
55044;BME280;54902;50.420;18.854;2023-04-09T01:11:42;102035.10;;;6.75;75.37
55044;BME280;54902;50.420;18.854;2023-04-09T01:12:30;102043.25;;;6.75;75.39
55044;BME280;54902;50.420;18.854;2023-04-09T01:13:07;102044.18;;;6.74;75.41
55044;BME280;54902;50.420;18.854;2023-04-09T01:14:34;102046.01;;;6.73;75.41
55044;BME280;54902;50.420;18.854;2023-04-09T01:15:10;102041.55;;;6.72;75.40
55044;BME280;54902;50.420;18.854;2023-04-09T01:15:48;102039.77;;;6.71;75.41
55044;BME280;54902;50.420;18.854;2023-04-09T01:16:22;102038.88;;;6.71;75.41
55044;BME280;54902;50.420;18.854;2023-04-09T01:17:03;102047.02;;;6.71;75.39
55044;BME280;54902;50.420;18.854;2023-04-09T01:17:40;102049.74;;;6.71;75.39
55044;BME280;54902;50.420;18.854;2023-04-09T01:19:01;102043.44;;;6.70;75.37
55044;BME280;54902;50.420;18.854;2023-04-09T01:20:04;102048.88;;;6.70;75.37
55044;BME280;54902;50.420;18.854;2023-04-09T01:21:05;102042.58;;;6.70;75.40
55044;BME280;54902;50.420;18.854;2023-04-09T01:21:37;102047.10;;;6.69;75.38
55044;BME280;54902;50.420;18.854;2023-04-09T01:23:00;102041.67;;;6.69;75.39
55044;BME280;54902;50.420;18.854;2023-04-09T01:23:45;102047.10;;;6.69;75.41
55044;BME280;54902;50.420;18.854;2023-04-09T01:24:32;102038.95;;;6.69;75.41
55044;BME280;54902;50.420;18.854;2023-04-09T01:25:12;102037.15;;;6.70;75.42
55044;BME280;54902;50.420;18.854;2023-04-09T01:25:55;102041.67;;;6.69;75.39
55044;BME280;54902;50.420;18.854;2023-04-09T01:27:10;102033.52;;;6.69;75.40
55044;BME280;54902;50.420;18.854;2023-04-09T01:28:04;102035.38;;;6.69;75.39
55044;BME280;54902;50.420;18.854;2023-04-09T01:28:45;102041.67;;;6.69;75.38
55044;BME280;54902;50.420;18.854;2023-04-09T01:29:14;102031.80;;;6.68;75.36
55044;BME280;54902;50.420;18.854;2023-04-09T01:29:50;102028.18;;;6.68;75.37
55044;BME280;54902;50.420;18.854;2023-04-09T01:30:25;102037.22;;;6.68;75.36
55044;BME280;54902;50.420;18.854;2023-04-09T01:31:03;102038.09;;;6.69;75.37
55044;BME280;54902;50.420;18.854;2023-04-09T01:31:37;102033.61;;;6.68;75.40
55044;BME280;54902;50.420;18.854;2023-04-09T01:32:09;102040.80;;;6.69;75.39
55044;BME280;54902;50.420;18.854;2023-04-09T01:32:42;102035.38;;;6.69;75.43
55044;BME280;54902;50.420;18.854;2023-04-09T01:33:15;102036.24;;;6.69;75.44
55044;BME280;54902;50.420;18.854;2023-04-09T01:33:47;102034.50;;;6.68;75.44
55044;BME280;54902;50.420;18.854;2023-04-09T01:34:19;102035.38;;;6.69;75.45
55044;BME280;54902;50.420;18.854;2023-04-09T01:34:51;102028.18;;;6.68;75.47
55044;BME280;54902;50.420;18.854;2023-04-09T01:35:24;102034.50;;;6.68;75.46
55044;BME280;54902;50.420;18.854;2023-04-09T01:35:56;102033.52;;;6.69;75.45
55044;BME280;54902;50.420;18.854;2023-04-09T01:36:30;102033.52;;;6.69;75.45
55044;BME280;54902;50.420;18.854;2023-04-09T01:37:02;102032.66;;;6.69;75.44
55044;BME280;54902;50.420;18.854;2023-04-09T01:37:34;102030.81;;;6.69;75.45
55044;BME280;54902;50.420;18.854;2023-04-09T01:38:07;102028.10;;;6.69;75.45
55044;BME280;54902;50.420;18.854;2023-04-09T01:38:42;102026.36;;;6.68;75.45
55044;BME280;54902;50.420;18.854;2023-04-09T01:39:15;102031.71;;;6.70;75.47
55044;BME280;54902;50.420;18.854;2023-04-09T01:39:47;102029.09;;;6.68;75.46
55044;BME280;54902;50.420;18.854;2023-04-09T01:40:18;102027.23;;;6.69;75.47
55044;BME280;54902;50.420;18.854;2023-04-09T01:40:49;102023.65;;;6.68;75.45
55044;BME280;54902;50.420;18.854;2023-04-09T01:41:22;102029.09;;;6.68;75.46
55044;BME280;54902;50.420;18.854;2023-04-09T01:41:54;102024.52;;;6.69;75.46
55044;BME280;54902;50.420;18.854;2023-04-09T01:42:28;102027.30;;;6.67;75.46
55044;BME280;54902;50.420;18.854;2023-04-09T01:43:00;102031.80;;;6.68;75.44
55044;BME280;54902;50.420;18.854;2023-04-09T01:43:32;102034.50;;;6.68;75.43
55044;BME280;54902;50.420;18.854;2023-04-09T01:44:04;102034.50;;;6.68;75.42
55044;BME280;54902;50.420;18.854;2023-04-09T01:44:38;102037.22;;;6.68;75.41
55044;BME280;54902;50.420;18.854;2023-04-09T01:45:11;102033.61;;;6.68;75.43
55044;BME280;54902;50.420;18.854;2023-04-09T01:45:44;102039.94;;;6.68;75.41
55044;BME280;54902;50.420;18.854;2023-04-09T01:46:17;102030.81;;;6.69;75.40
55044;BME280;54902;50.420;18.854;2023-04-09T01:46:49;102030.89;;;6.68;75.40
55044;BME280;54902;50.420;18.854;2023-04-09T01:47:21;102032.74;;;6.67;75.41
55044;BME280;54902;50.420;18.854;2023-04-09T01:47:53;102039.94;;;6.68;75.39
55044;BME280;54902;50.420;18.854;2023-04-09T01:48:26;102040.88;;;6.67;75.40
55044;BME280;54902;50.420;18.854;2023-04-09T01:48:59;102034.50;;;6.68;75.41
55044;BME280;54902;50.420;18.854;2023-04-09T01:49:32;102037.22;;;6.68;75.42
55044;BME280;54902;50.420;18.854;2023-04-09T01:50:03;102039.04;;;6.68;75.44
55044;BME280;54902;50.420;18.854;2023-04-09T01:50:35;102037.22;;;6.68;75.43
55044;BME280;54902;50.420;18.854;2023-04-09T01:51:07;102043.60;;;6.67;75.45
55044;BME280;54902;50.420;18.854;2023-04-09T01:51:38;102047.19;;;6.68;75.48
55044;BME280;54902;50.420;18.854;2023-04-09T01:52:09;102042.65;;;6.68;75.46
55044;BME280;54902;50.420;18.854;2023-04-09T01:52:41;102039.94;;;6.68;75.45
55044;BME280;54902;50.420;18.854;2023-04-09T01:53:12;102047.10;;;6.69;75.44
55044;BME280;54902;50.420;18.854;2023-04-09T01:53:44;102039.04;;;6.68;75.46
55044;BME280;54902;50.420;18.854;2023-04-09T01:54:15;102041.75;;;6.68;75.47
55044;BME280;54902;50.420;18.854;2023-04-09T01:54:46;102033.61;;;6.68;75.46
55044;BME280;54902;50.420;18.854;2023-04-09T01:55:17;102036.31;;;6.68;75.47
55044;BME280;54902;50.420;18.854;2023-04-09T01:55:48;102045.37;;;6.68;75.47
55044;BME280;54902;50.420;18.854;2023-04-09T01:56:19;102038.16;;;6.67;75.46
55044;BME280;54902;50.420;18.854;2023-04-09T01:56:50;102039.04;;;6.68;75.49
55044;BME280;54902;50.420;18.854;2023-04-09T01:57:21;102042.65;;;6.68;75.49
55044;BME280;54902;50.420;18.854;2023-04-09T01:57:52;102033.61;;;6.68;75.53
55044;BME280;54902;50.420;18.854;2023-04-09T01:58:24;102045.37;;;6.68;75.52
55044;BME280;54902;50.420;18.854;2023-04-09T01:58:55;102043.60;;;6.67;75.54
55044;BME280;54902;50.420;18.854;2023-04-09T01:59:26;102044.46;;;6.68;75.53
55044;BME280;54902;50.420;18.854;2023-04-09T01:59:56;102038.16;;;6.67;75.51
55044;BME280;54902;50.420;18.854;2023-04-09T02:00:35;102035.45;;;6.67;75.53
55044;BME280;54902;50.420;18.854;2023-04-09T02:01:14;102043.60;;;6.67;75.51
55044;BME280;54902;50.420;18.854;2023-04-09T02:01:54;102039.04;;;6.68;75.53
55044;BME280;54902;50.420;18.854;2023-04-09T02:02:35;102036.31;;;6.68;75.54
55044;BME280;54902;50.420;18.854;2023-04-09T02:03:11;102044.46;;;6.68;75.53
55044;BME280;54902;50.420;18.854;2023-04-09T02:03:47;102039.12;;;6.66;75.56
55044;BME280;54902;50.420;18.854;2023-04-09T02:05:08;102036.40;;;6.66;75.59
55044;BME280;54902;50.420;18.854;2023-04-09T02:05:52;102038.16;;;6.67;75.62
55044;BME280;54902;50.420;18.854;2023-04-09T02:06:37;102045.41;;;6.67;75.63
55044;BME280;54902;50.420;18.854;2023-04-09T02:07:17;102039.99;;;6.67;75.65
55044;BME280;54902;50.420;18.854;2023-04-09T02:07:54;102034.55;;;6.67;75.64
55044;BME280;54902;50.420;18.854;2023-04-09T02:08:27;102035.53;;;6.66;75.67
55044;BME280;54902;50.420;18.854;2023-04-09T02:09:00;102039.12;;;6.66;75.69
55044;BME280;54902;50.420;18.854;2023-04-09T02:09:36;102033.76;;;6.65;75.67
55044;BME280;54902;50.420;18.854;2023-04-09T02:10:09;102031.91;;;6.65;75.69
55044;BME280;54902;50.420;18.854;2023-04-09T02:10:42;102035.53;;;6.66;75.70
55044;BME280;54902;50.420;18.854;2023-04-09T02:11:15;102037.34;;;6.65;75.70
55044;BME280;54902;50.420;18.854;2023-04-09T02:11:47;102036.48;;;6.65;75.69
55044;BME280;54902;50.420;18.854;2023-04-09T02:12:20;102038.32;;;6.64;75.70
55044;BME280;54902;50.420;18.854;2023-04-09T02:12:52;102037.34;;;6.65;75.72
55044;BME280;54902;50.420;18.854;2023-04-09T02:13:25;102040.05;;;6.65;75.72
55044;BME280;54902;50.420;18.854;2023-04-09T02:13:58;102038.32;;;6.64;75.68
55044;BME280;54902;50.420;18.854;2023-04-09T02:14:31;102035.61;;;6.64;75.67
55044;BME280;54902;50.420;18.854;2023-04-09T02:15:05;102041.03;;;6.64;75.65
55044;BME280;54902;50.420;18.854;2023-04-09T02:15:38;102031.91;;;6.65;75.66
55044;BME280;54902;50.420;18.854;2023-04-09T02:16:10;102045.49;;;6.65;75.66
55044;BME280;54902;50.420;18.854;2023-04-09T02:16:43;102041.98;;;6.63;75.66
55044;BME280;54902;50.420;18.854;2023-04-09T02:17:14;102039.20;;;6.65;75.65
55044;BME280;54902;50.420;18.854;2023-04-09T02:17:45;102047.27;;;6.66;75.64
55044;BME280;54902;50.420;18.854;2023-04-09T02:18:23;102046.39;;;6.66;75.64
55044;BME280;54902;50.420;18.854;2023-04-09T02:18:54;102042.78;;;6.65;75.63
55044;BME280;54902;50.420;18.854;2023-04-09T02:19:37;102043.68;;;6.66;75.63
55044;BME280;54902;50.420;18.854;2023-04-09T02:20:09;102036.40;;;6.66;75.60
55044;BME280;54902;50.420;18.854;2023-04-09T02:20:41;102046.39;;;6.66;75.60
55044;BME280;54902;50.420;18.854;2023-04-09T02:21:12;102037.34;;;6.65;75.61
55044;BME280;54902;50.420;18.854;2023-04-09T02:21:43;102041.83;;;6.66;75.61
55044;BME280;54902;50.420;18.854;2023-04-09T02:22:15;102040.95;;;6.66;75.62
55044;BME280;54902;50.420;18.854;2023-04-09T02:22:46;102039.12;;;6.66;75.63
55044;BME280;54902;50.420;18.854;2023-04-09T02:23:18;102049.90;;;6.68;75.62
55044;BME280;54902;50.420;18.854;2023-04-09T02:23:49;102042.70;;;6.67;75.62
55044;BME280;54902;50.420;18.854;2023-04-09T02:24:20;102041.83;;;6.66;75.60
55044;BME280;54902;50.420;18.854;2023-04-09T02:24:51;102039.94;;;6.68;75.59
55044;BME280;54902;50.420;18.854;2023-04-09T02:25:22;102043.60;;;6.67;75.57
55044;BME280;54902;50.420;18.854;2023-04-09T02:25:55;102038.16;;;6.67;75.58
55044;BME280;54902;50.420;18.854;2023-04-09T02:26:26;102042.70;;;6.67;75.54
55044;BME280;54902;50.420;18.854;2023-04-09T02:26:57;102039.04;;;6.68;75.59
55044;BME280;54902;50.420;18.854;2023-04-09T02:27:28;102035.45;;;6.67;75.56
55044;BME280;54902;50.420;18.854;2023-04-09T02:27:59;102032.74;;;6.67;75.57
55044;BME280;54902;50.420;18.854;2023-04-09T02:28:30;102035.45;;;6.67;75.57
55044;BME280;54902;50.420;18.854;2023-04-09T02:29:01;102032.74;;;6.67;75.57
55044;BME280;54902;50.420;18.854;2023-04-09T02:29:32;102025.53;;;6.66;75.56
55044;BME280;54902;50.420;18.854;2023-04-09T02:30:03;102031.84;;;6.67;75.56
55044;BME280;54902;50.420;18.854;2023-04-09T02:30:35;102026.36;;;6.68;75.53
55044;BME280;54902;50.420;18.854;2023-04-09T02:31:05;102028.25;;;6.66;75.54
55044;BME280;54902;50.420;18.854;2023-04-09T02:31:36;102025.53;;;6.66;75.53
55044;BME280;54902;50.420;18.854;2023-04-09T02:32:07;102023.70;;;6.67;75.53
55044;BME280;54902;50.420;18.854;2023-04-09T02:32:39;102025.53;;;6.66;75.52
55044;BME280;54902;50.420;18.854;2023-04-09T02:33:10;102024.68;;;6.66;75.53
55044;BME280;54902;50.420;18.854;2023-04-09T02:33:41;102025.53;;;6.66;75.55
55044;BME280;54902;50.420;18.854;2023-04-09T02:34:12;102030.09;;;6.66;75.55
55044;BME280;54902;50.420;18.854;2023-04-09T02:34:42;102030.97;;;6.66;75.54
55044;BME280;54902;50.420;18.854;2023-04-09T02:35:15;102040.95;;;6.66;75.53
55044;BME280;54902;50.420;18.854;2023-04-09T02:35:46;102028.25;;;6.66;75.53
55044;BME280;54902;50.420;18.854;2023-04-09T02:36:17;102033.68;;;6.66;75.55
55044;BME280;54902;50.420;18.854;2023-04-09T02:36:47;102033.68;;;6.66;75.54
55044;BME280;54902;50.420;18.854;2023-04-09T02:37:18;102029.20;;;6.65;75.56
55044;BME280;54902;50.420;18.854;2023-04-09T02:37:49;102033.68;;;6.66;75.58
55044;BME280;54902;50.420;18.854;2023-04-09T02:38:20;102029.20;;;6.65;75.57
55044;BME280;54902;50.420;18.854;2023-04-09T02:38:51;102030.09;;;6.66;75.60
55044;BME280;54902;50.420;18.854;2023-04-09T02:39:22;102034.63;;;6.65;75.60
55044;BME280;54902;50.420;18.854;2023-04-09T02:39:53;102032.80;;;6.66;75.59
55044;BME280;54902;50.420;18.854;2023-04-09T02:40:24;102040.05;;;6.65;75.61
55044;BME280;54902;50.420;18.854;2023-04-09T02:40:55;102038.24;;;6.66;75.60
55044;BME280;54902;50.420;18.854;2023-04-09T02:41:26;102029.20;;;6.65;75.61
55044;BME280;54902;50.420;18.854;2023-04-09T02:41:57;102034.63;;;6.65;75.61
55044;BME280;54902;50.420;18.854;2023-04-09T02:42:27;102025.61;;;6.65;75.64
55044;BME280;54902;50.420;18.854;2023-04-09T02:42:58;102028.34;;;6.65;75.66
55044;BME280;54902;50.420;18.854;2023-04-09T02:43:29;102034.63;;;6.65;75.63
55044;BME280;54902;50.420;18.854;2023-04-09T02:44:00;102032.89;;;6.64;75.65
55044;BME280;54902;50.420;18.854;2023-04-09T02:44:31;102027.47;;;6.64;75.65
55044;BME280;54902;50.420;18.854;2023-04-09T02:45:02;102040.05;;;6.65;75.64
55044;BME280;54902;50.420;18.854;2023-04-09T02:45:34;102032.89;;;6.64;75.65
55044;BME280;54902;50.420;18.854;2023-04-09T02:46:06;102031.91;;;6.65;75.64
55044;BME280;54902;50.420;18.854;2023-04-09T02:46:37;102028.34;;;6.65;75.63
55044;BME280;54902;50.420;18.854;2023-04-09T02:47:09;102031.05;;;6.65;75.62
55044;BME280;54902;50.420;18.854;2023-04-09T02:47:39;102032.89;;;6.64;75.63
55044;BME280;54902;50.420;18.854;2023-04-09T02:48:10;102027.47;;;6.64;75.64
55044;BME280;54902;50.420;18.854;2023-04-09T02:48:41;102029.20;;;6.65;75.64
55044;BME280;54902;50.420;18.854;2023-04-09T02:49:12;102032.89;;;6.64;75.63
55044;BME280;54902;50.420;18.854;2023-04-09T02:49:43;102030.17;;;6.64;75.62
55044;BME280;54902;50.420;18.854;2023-04-09T02:50:14;102027.47;;;6.64;75.60
55044;BME280;54902;50.420;18.854;2023-04-09T02:50:45;102029.20;;;6.65;75.61
55044;BME280;54902;50.420;18.854;2023-04-09T02:51:16;102027.47;;;6.64;75.62
55044;BME280;54902;50.420;18.854;2023-04-09T02:51:47;102027.47;;;6.64;75.62
55044;BME280;54902;50.420;18.854;2023-04-09T02:52:18;102032.89;;;6.64;75.63
55044;BME280;54902;50.420;18.854;2023-04-09T02:52:53;102032.89;;;6.64;75.64
55044;BME280;54902;50.420;18.854;2023-04-09T02:53:24;102031.91;;;6.65;75.66
55044;BME280;54902;50.420;18.854;2023-04-09T02:53:55;102032.89;;;6.64;75.65
55044;BME280;54902;50.420;18.854;2023-04-09T02:54:26;102027.47;;;6.64;75.65
55044;BME280;54902;50.420;18.854;2023-04-09T02:54:57;102032.89;;;6.64;75.65
55044;BME280;54902;50.420;18.854;2023-04-09T02:55:28;102028.34;;;6.65;75.64
55044;BME280;54902;50.420;18.854;2023-04-09T02:55:59;102025.70;;;6.63;75.65
55044;BME280;54902;50.420;18.854;2023-04-09T02:56:30;102029.27;;;6.64;75.64
55044;BME280;54902;50.420;18.854;2023-04-09T02:57:01;102031.05;;;6.65;75.65
55044;BME280;54902;50.420;18.854;2023-04-09T02:57:32;102035.61;;;6.64;75.65
55044;BME280;54902;50.420;18.854;2023-04-09T02:58:03;102026.56;;;6.64;75.66
55044;BME280;54902;50.420;18.854;2023-04-09T02:58:34;102031.13;;;6.63;75.66